Time;durP1;ratioP1;P1;durP2;ratioP2;P2;SDS_P1;SDS_P2;PMS_P1;PMS_P2;Temp;Humidity;BMP_temperature;BMP_pressure;BME280_temperature;BME280_humidity;BME280_pressure;Samples;Min_cycle;Max_cycle;Signal;HPM_P1;HPM_P2
2023/03/06 00:01:35;;;;;;;;;;;;;;;6.92;49.65;99094.03;5093604;28;19924;-42
2023/03/06 00:04:00;;;;;;;;;;;;;;;7.12;49.83;99092.31;5093285;28;20366;-43
2023/03/06 00:06:25;;;;;;;;;;;;;;;6.84;50.97;99097.66;5093090;28;19912;-42
2023/03/06 00:08:50;;;;;;;;;;;;;;;6.64;51.17;99100.16;5093083;28;20398;-43
2023/03/06 00:11:16;;;;;;;;;;;;;;;6.84;51.24;99092.38;5092995;28;19999;-43
2023/03/06 00:13:41;;;;;;;;;;;;;;;6.83;50.68;99099.50;5093084;28;19916;-43
2023/03/06 00:16:07;;;;;;;;;;;;;;;6.71;51.38;99098.38;5093149;28;19955;-42
2023/03/06 00:18:32;;;;;;;;;;;;;;;6.62;50.83;99102.19;5093023;28;19916;-42
2023/03/06 00:20:58;;;;;;;;;;;;;;;6.77;50.86;99102.09;5093095;28;20364;-42
2023/03/06 00:23:23;;;;;;;;;;;;;;;6.58;51.41;99103.59;5092799;28;20269;-42
2023/03/06 00:25:48;;;;;;;;;;;;;;;6.71;51.59;99100.22;5092423;28;19916;-42
2023/03/06 00:28:14;;;;;;;;;;;;;;;7.01;50.50;99106.09;5092665;28;19912;-42
2023/03/06 00:30:40;;;;;;;;;;;;;;;6.80;51.05;99107.00;5093064;28;20344;-43
2023/03/06 00:33:05;;;;;;;;;;;;;;;6.69;51.21;99107.53;5092676;28;19912;-42
2023/03/06 00:35:30;;;;;;;;;;;;;;;6.80;50.28;99109.63;5092761;28;19911;-42
2023/03/06 00:37:58;;;;;;;;;;;;;;;6.73;50.91;99114.88;5092572;28;19912;-42
2023/03/06 00:40:24;;;;;;;;;;;;;;;6.34;51.44;99118.88;5092712;28;19912;-42
2023/03/06 00:42:49;;;;;;;;;;;;;;;6.53;51.83;99122.69;5092130;28;20364;-42
2023/03/06 00:45:14;;;;;;;;;;;;;;;6.79;51.08;99110.63;5092288;28;19916;-42
2023/03/06 00:47:40;;;;;;;;;;;;;;;6.49;51.50;99117.94;5092235;28;19919;-42
2023/03/06 00:50:06;;;;;;;;;;;;;;;6.38;52.05;99120.13;5092357;28;19935;-42
2023/03/06 00:52:32;;;;;;;;;;;;;;;6.35;52.17;99123.13;5092370;28;19912;-42
2023/03/06 00:54:57;;;;;;;;;;;;;;;6.35;51.83;99125.78;5092239;28;19912;-43
2023/03/06 00:57:22;;;;;;;;;;;;;;;6.20;52.06;99128.50;5091993;28;19912;-43
2023/03/06 00:59:47;;;;;;;;;;;;;;;6.18;52.02;99119.13;5092108;28;19912;-43
2023/03/06 01:02:13;;;;;;;;;;;;;;;6.37;51.51;99125.59;5091589;28;20344;-43
2023/03/06 01:04:38;;;;;;;;;;;;;;;6.39;51.84;99116.47;5091960;28;19923;-43
2023/03/06 01:07:03;;;;;;;;;;;;;;;6.44;51.88;99121.19;5092179;28;19912;-43
2023/03/06 01:09:28;;;;;;;;;;;;;;;6.58;51.56;99122.91;5091894;28;19920;-43
2023/03/06 01:11:54;;;;;;;;;;;;;;;6.56;51.68;99119.63;5091988;28;20379;-42
2023/03/06 01:14:19;;;;;;;;;;;;;;;6.67;51.41;99120.13;5091874;28;19919;-43
2023/03/06 01:16:45;;;;;;;;;;;;;;;6.63;52.15;99124.97;5092082;28;19912;-43
2023/03/06 01:19:10;;;;;;;;;;;;;;;6.56;51.97;99124.13;5091904;28;20284;-43
2023/03/06 01:21:36;;;;;;;;;;;;;;;6.54;51.56;99116.38;5091874;28;19964;-41
2023/03/06 01:24:01;;;;;;;;;;;;;;;6.84;50.70;99119.63;5091570;28;19973;-41
2023/03/06 01:26:26;;;;;;;;;;;;;;;6.71;51.14;99126.66;5091302;28;19994;-42
2023/03/06 01:28:51;;;;;;;;;;;;;;;6.79;50.22;99123.84;5091524;28;19915;-43
2023/03/06 01:31:17;;;;;;;;;;;;;;;6.70;51.31;99125.00;5091770;28;19913;-42
2023/03/06 01:33:42;;;;;;;;;;;;;;;6.60;51.47;99128.81;5091605;28;19919;-42
2023/03/06 01:36:09;;;;;;;;;;;;;;;6.54;51.70;99121.66;5091870;28;20420;-43
2023/03/06 01:38:35;;;;;;;;;;;;;;;6.40;51.70;99126.03;5091487;28;19942;-43
2023/03/06 01:41:02;;;;;;;;;;;;;;;6.41;51.65;99116.28;5091482;28;20081;-42
2023/03/06 01:43:31;;;;;;;;;;;;;;;6.53;52.28;99119.19;5091217;28;19919;-43
2023/03/06 01:46:05;;;;;;;;;;;;;;;6.36;52.17;99130.06;5091553;28;19969;-43
2023/03/06 01:48:31;;;;;;;;;;;;;;;6.40;52.54;99127.88;5091118;28;19916;-43
2023/03/06 01:50:56;;;;;;;;;;;;;;;6.61;51.83;99127.81;5091193;28;19977;-42
2023/03/06 01:53:22;;;;;;;;;;;;;;;6.63;51.67;99132.91;5091278;28;19912;-42
2023/03/06 01:55:47;;;;;;;;;;;;;;;6.67;51.64;99128.06;5091483;28;19918;-42
2023/03/06 01:58:15;;;;;;;;;;;;;;;6.44;52.07;99132.56;5091192;28;20006;-42
2023/03/06 02:00:40;;;;;;;;;;;;;;;6.54;52.23;99131.41;5091088;28;19912;-42
2023/03/06 02:03:08;;;;;;;;;;;;;;;6.59;51.76;99131.66;5091146;28;19969;-41
2023/03/06 02:05:33;;;;;;;;;;;;;;;6.54;51.97;99140.16;5091138;28;19939;-40
2023/03/06 02:07:59;;;;;;;;;;;;;;;6.41;52.19;99145.34;5091115;28;19959;-40
2023/03/06 02:10:25;;;;;;;;;;;;;;;6.26;52.37;99119.84;5090822;28;19920;-41
2023/03/06 02:12:50;;;;;;;;;;;;;;;6.61;51.48;99143.69;5090156;28;19976;-42
2023/03/06 02:15:18;;;;;;;;;;;;;;;6.53;51.73;99140.34;5091270;28;19923;-42
2023/03/06 02:17:44;;;;;;;;;;;;;;;6.44;52.18;99151.06;5090939;28;19919;-42
2023/03/06 02:20:12;;;;;;;;;;;;;;;6.26;52.95;99140.13;5090779;28;19977;-41
2023/03/06 02:22:43;;;;;;;;;;;;;;;6.33;53.26;99156.06;5090810;28;19920;-43
2023/03/06 02:25:21;;;;;;;;;;;;;;;5.93;53.29;99150.38;5090945;28;19920;-41
2023/03/06 02:27:46;;;;;;;;;;;;;;;6.28;53.41;99150.50;5090981;28;19922;-42
2023/03/06 02:30:13;;;;;;;;;;;;;;;6.33;53.58;99154.22;5090836;28;20033;-40
2023/03/06 02:32:39;;;;;;;;;;;;;;;6.28;52.97;99161.09;5090916;28;19955;-41
2023/03/06 02:35:05;;;;;;;;;;;;;;;6.19;52.74;99158.59;5090804;28;19912;-41
2023/03/06 02:37:31;;;;;;;;;;;;;;;6.36;53.12;99164.44;5090961;28;19912;-42
2023/03/06 02:40:07;;;;;;;;;;;;;;;6.24;53.08;99166.78;5091017;28;20335;-42
2023/03/06 02:42:32;;;;;;;;;;;;;;;6.13;53.49;99164.63;5091208;28;19912;-41
2023/03/06 02:44:59;;;;;;;;;;;;;;;6.07;54.23;99173.28;5091254;28;19911;-39
2023/03/06 02:47:25;;;;;;;;;;;;;;;6.13;53.63;99163.78;5091319;28;19912;-41
2023/03/06 02:49:50;;;;;;;;;;;;;;;6.05;54.07;99160.28;5091179;28;19916;-42
2023/03/06 02:52:15;;;;;;;;;;;;;;;5.83;53.84;99159.41;5091449;28;20340;-41
2023/03/06 02:54:41;;;;;;;;;;;;;;;5.98;54.18;99161.22;5091201;28;19912;-41
2023/03/06 02:57:07;;;;;;;;;;;;;;;5.90;54.24;99159.47;5091286;28;19912;-41
2023/03/06 02:59:32;;;;;;;;;;;;;;;6.14;53.94;99166.25;5091275;28;19965;-41
2023/03/06 03:01:57;;;;;;;;;;;;;;;6.01;54.51;99164.28;5091255;28;19935;-41
2023/03/06 03:04:22;;;;;;;;;;;;;;;5.86;55.19;99164.34;5091167;28;19912;-41
2023/03/06 03:06:48;;;;;;;;;;;;;;;5.99;55.04;99166.31;5091077;28;20344;-41
2023/03/06 03:09:13;;;;;;;;;;;;;;;5.92;54.61;99156.66;5090718;28;19923;-41
2023/03/06 03:11:39;;;;;;;;;;;;;;;5.83;55.15;99167.34;5090118;28;19916;-40
2023/03/06 03:14:04;;;;;;;;;;;;;;;5.82;54.36;99165.69;5090782;28;19919;-40
2023/03/06 03:16:29;;;;;;;;;;;;;;;5.97;54.04;99162.22;5091060;28;19940;-41
2023/03/06 03:18:55;;;;;;;;;;;;;;;5.82;54.84;99160.41;5090704;28;19951;-41
2023/03/06 03:21:20;;;;;;;;;;;;;;;5.84;54.05;99155.75;5091056;28;19923;-41
2023/03/06 03:23:45;;;;;;;;;;;;;;;5.91;53.75;99163.75;5091591;28;19923;-40
2023/03/06 03:26:12;;;;;;;;;;;;;;;6.03;53.93;99159.63;5095973;28;19916;-41
2023/03/06 03:28:38;;;;;;;;;;;;;;;5.79;54.47;99159.97;5105582;28;19916;-40
2023/03/06 03:31:04;;;;;;;;;;;;;;;5.88;54.40;99167.59;5094566;28;19927;-40
2023/03/06 03:33:29;;;;;;;;;;;;;;;5.85;54.59;99167.16;5094684;28;20366;-41
2023/03/06 03:35:58;;;;;;;;;;;;;;;5.57;55.10;99165.19;5094667;28;19994;-41
2023/03/06 03:38:24;;;;;;;;;;;;;;;5.62;55.81;99159.38;5096971;28;19919;-42
2023/03/06 03:40:49;;;;;;;;;;;;;;;5.51;55.58;99165.13;5094477;28;19916;-41
2023/03/06 03:43:15;;;;;;;;;;;;;;;5.15;56.75;99163.25;5094251;28;20006;-48
2023/03/06 03:45:40;;;;;;;;;;;;;;;5.55;55.46;99163.75;5094122;28;19912;-48
2023/03/06 03:48:05;;;;;;;;;;;;;;;5.56;55.52;99155.66;5094307;28;19912;-48
2023/03/06 03:50:32;;;;;;;;;;;;;;;5.61;55.53;99155.09;5094349;28;19959;-47
2023/03/06 03:52:57;;;;;;;;;;;;;;;5.42;55.95;99159.13;5094254;28;20376;-48
2023/03/06 03:55:22;;;;;;;;;;;;;;;5.38;55.27;99120.94;5094056;28;19918;-48
2023/03/06 03:57:48;;;;;;;;;;;;;;;5.88;54.61;99158.84;5094039;28;20365;-48
2023/03/06 04:00:15;;;;;;;;;;;;;;;5.66;55.12;99163.28;5094527;28;19912;-47
2023/03/06 04:02:41;;;;;;;;;;;;;;;5.53;55.29;99165.78;5099471;28;19924;-47
2023/03/06 04:05:06;;;;;;;;;;;;;;;5.63;55.75;99169.72;5104715;28;19912;-47
2023/03/06 04:07:31;;;;;;;;;;;;;;;5.49;54.99;99171.41;5093637;28;19912;-47
2023/03/06 04:09:57;;;;;;;;;;;;;;;5.59;55.36;99165.03;5093742;28;19924;-47
2023/03/06 04:12:22;;;;;;;;;;;;;;;5.62;56.18;99172.59;5093243;28;19950;-46
2023/03/06 04:14:47;;;;;;;;;;;;;;;5.72;54.57;99177.56;5093927;28;20295;-46
2023/03/06 04:17:13;;;;;;;;;;;;;;;5.68;56.00;99183.19;5093703;28;19946;-46
2023/03/06 04:19:38;;;;;;;;;;;;;;;5.70;54.72;99177.75;5095147;28;19972;-46
2023/03/06 04:22:03;;;;;;;;;;;;;;;5.73;54.80;99177.38;5093276;28;20364;-47
2023/03/06 04:24:28;;;;;;;;;;;;;;;5.91;55.99;99184.88;5093891;28;20271;-47
2023/03/06 04:26:54;;;;;;;;;;;;;;;5.88;54.19;99188.72;5092494;28;19996;-46
2023/03/06 04:29:19;;;;;;;;;;;;;;;5.85;55.50;99193.56;5093419;28;19926;-46
2023/03/06 04:31:44;;;;;;;;;;;;;;;5.81;54.38;99194.94;5092351;28;19912;-48
2023/03/06 04:34:09;;;;;;;;;;;;;;;5.40;54.94;99198.91;5093272;28;20420;-47
2023/03/06 04:36:35;;;;;;;;;;;;;;;5.94;55.95;99196.88;5091611;28;19916;-47
2023/03/06 04:39:00;;;;;;;;;;;;;;;5.97;54.08;99200.00;5092679;28;19912;-47
2023/03/06 04:41:26;;;;;;;;;;;;;;;5.88;54.23;99203.72;5092124;28;20011;-47
2023/03/06 04:43:51;;;;;;;;;;;;;;;5.68;55.81;99200.88;5092169;28;19912;-47
2023/03/06 04:46:16;;;;;;;;;;;;;;;5.83;55.58;99206.94;5092201;28;20422;-46
2023/03/06 04:48:42;;;;;;;;;;;;;;;6.24;53.63;99211.69;5091757;28;19920;-47
2023/03/06 04:51:07;;;;;;;;;;;;;;;6.50;52.97;99212.94;5091742;28;19916;-47
2023/03/06 04:53:32;;;;;;;;;;;;;;;6.27;53.12;99221.06;5092229;28;20339;-47
2023/03/06 04:55:58;;;;;;;;;;;;;;;5.86;53.28;99214.50;5092781;28;19916;-47
2023/03/06 04:58:24;;;;;;;;;;;;;;;6.14;53.36;99216.44;5092311;28;19991;-47
2023/03/06 05:00:49;;;;;;;;;;;;;;;6.33;52.22;99217.66;5092228;28;20367;-47
2023/03/06 05:03:14;;;;;;;;;;;;;;;6.38;52.39;99223.19;5092791;28;19912;-47
2023/03/06 05:05:40;;;;;;;;;;;;;;;6.44;54.69;99218.97;5093080;28;19912;-47
2023/03/06 05:08:05;;;;;;;;;;;;;;;6.17;53.68;99221.38;5093334;28;19981;-47
2023/03/06 05:10:30;;;;;;;;;;;;;;;6.00;53.35;99227.91;5092451;28;19934;-47
2023/03/06 05:12:56;;;;;;;;;;;;;;;6.39;52.64;99226.66;5092918;28;19973;-48
2023/03/06 05:15:21;;;;;;;;;;;;;;;6.90;50.67;99234.41;5092937;28;19912;-48
2023/03/06 05:17:46;;;;;;;;;;;;;;;6.92;50.26;99232.41;5092076;28;19916;-43
2023/03/06 05:20:12;;;;;;;;;;;;;;;7.61;49.28;99234.22;5092428;28;19982;-36
2023/03/06 05:22:38;;;;;;;;;;;;;;;7.08;49.69;99238.41;5092046;28;19919;-36
2023/03/06 05:25:03;;;;;;;;;;;;;;;7.49;49.58;99237.66;5092426;28;20303;-37
2023/03/06 05:27:29;;;;;;;;;;;;;;;8.09;48.04;99243.19;5092836;28;19956;-37
2023/03/06 05:29:54;;;;;;;;;;;;;;;7.91;48.53;99241.91;5091990;28;19927;-37
2023/03/06 05:32:20;;;;;;;;;;;;;;;7.82;49.16;99248.38;5091534;28;19919;-36
2023/03/06 05:34:45;;;;;;;;;;;;;;;8.45;47.77;99258.00;5091999;28;19912;-36
2023/03/06 05:37:11;;;;;;;;;;;;;;;8.91;46.38;99263.34;5090717;28;20061;-36
2023/03/06 05:39:36;;;;;;;;;;;;;;;8.62;46.85;99261.88;5091856;28;19912;-36
2023/03/06 05:42:01;;;;;;;;;;;;;;;8.09;48.06;99261.72;5090732;28;19919;-36
2023/03/06 05:44:33;;;;;;;;;;;;;;;8.60;47.77;99267.41;5090749;28;19912;-36
2023/03/06 05:46:59;;;;;;;;;;;;;;;8.75;47.37;99279.66;5090837;28;19998;-36
2023/03/06 05:49:24;;;;;;;;;;;;;;;8.67;47.89;99280.69;5090883;28;20081;-38
2023/03/06 05:51:49;;;;;;;;;;;;;;;8.66;47.80;99279.03;5090176;28;20348;-36
2023/03/06 05:54:15;;;;;;;;;;;;;;;9.34;46.48;99280.66;5090857;28;19996;-36
2023/03/06 05:56:40;;;;;;;;;;;;;;;9.54;45.07;99291.28;5090978;28;20331;-38
2023/03/06 05:59:05;;;;;;;;;;;;;;;9.51;45.66;99292.47;5091287;28;19999;-37
2023/03/06 06:01:31;;;;;;;;;;;;;;;9.42;45.43;99291.06;5091155;28;19977;-36
2023/03/06 06:03:56;;;;;;;;;;;;;;;10.38;44.13;99292.22;5091538;28;19912;-43
2023/03/06 06:06:21;;;;;;;;;;;;;;;11.43;41.40;99293.47;5091247;28;19918;-42
2023/03/06 06:08:46;;;;;;;;;;;;;;;12.23;40.38;99298.75;5091065;28;19916;-42
2023/03/06 06:11:12;;;;;;;;;;;;;;;12.74;39.56;99293.13;5090993;28;20015;-44
2023/03/06 06:13:38;;;;;;;;;;;;;;;13.48;37.87;99299.75;5091128;28;19912;-43
2023/03/06 06:16:10;;;;;;;;;;;;;;;13.82;37.19;99294.59;5091134;28;19919;-43
2023/03/06 06:18:36;;;;;;;;;;;;;;;14.54;35.67;99293.28;5091275;28;20041;-44
2023/03/06 06:21:05;;;;;;;;;;;;;;;14.88;35.01;99297.94;5090953;28;19920;-43
2023/03/06 06:23:30;;;;;;;;;;;;;;;15.20;34.41;99293.63;5089624;28;20318;-36
2023/03/06 06:25:57;;;;;;;;;;;;;;;15.01;34.74;99298.44;5090848;28;19912;-44
2023/03/06 06:28:23;;;;;;;;;;;;;;;14.15;34.68;99303.03;5090455;28;19989;-43
2023/03/06 06:30:48;;;;;;;;;;;;;;;14.23;35.83;99313.34;5090942;28;19955;-44
2023/03/06 06:33:13;;;;;;;;;;;;;;;14.30;35.04;99305.16;5090609;28;20343;-43
2023/03/06 06:35:38;;;;;;;;;;;;;;;14.73;34.23;99303.84;5090410;28;20139;-43
2023/03/06 06:38:04;;;;;;;;;;;;;;;15.34;33.41;99304.81;5090867;28;19919;-43
2023/03/06 06:40:29;;;;;;;;;;;;;;;15.61;33.03;99310.34;5091155;28;20352;-43
2023/03/06 06:42:54;;;;;;;;;;;;;;;16.09;31.17;99313.38;5090504;28;20006;-44
2023/03/06 06:45:19;;;;;;;;;;;;;;;16.50;31.58;99311.16;5090617;28;19970;-43
2023/03/06 06:47:48;;;;;;;;;;;;;;;16.45;30.51;99312.97;5090980;28;19912;-44
2023/03/06 06:50:13;;;;;;;;;;;;;;;16.83;30.67;99312.06;5090286;28;19968;-37
2023/03/06 06:52:38;;;;;;;;;;;;;;;17.52;29.68;99316.59;5090815;28;19927;-37
2023/03/06 06:55:04;;;;;;;;;;;;;;;17.61;29.12;99316.09;5090978;28;19919;-39
2023/03/06 06:57:29;;;;;;;;;;;;;;;17.97;29.02;99319.81;5090513;28;19939;-44
2023/03/06 06:59:54;;;;;;;;;;;;;;;18.43;28.27;99319.19;5093261;28;20441;-44
2023/03/06 07:02:20;;;;;;;;;;;;;;;18.66;28.03;99323.31;5094834;28;19912;-45
2023/03/06 07:04:45;;;;;;;;;;;;;;;18.79;28.14;99317.38;5094691;28;20015;-44
2023/03/06 07:07:10;;;;;;;;;;;;;;;19.42;27.70;99321.69;5094278;28;19935;-43
2023/03/06 07:09:36;;;;;;;;;;;;;;;18.83;27.65;99318.50;5093937;28;19920;-43
2023/03/06 07:12:01;;;;;;;;;;;;;;;18.40;28.76;99320.53;5094505;28;19911;-43
2023/03/06 07:14:26;;;;;;;;;;;;;;;18.75;28.03;99325.19;5094355;28;20384;-44
2023/03/06 07:16:52;;;;;;;;;;;;;;;18.74;28.08;99328.97;5094403;28;19934;-45
2023/03/06 07:19:17;;;;;;;;;;;;;;;18.81;27.50;99325.22;5094523;28;19912;-43
2023/03/06 07:21:42;;;;;;;;;;;;;;;18.81;27.63;99334.13;5093989;28;19927;-44
2023/03/06 07:24:07;;;;;;;;;;;;;;;19.34;26.67;99334.69;5094196;28;20014;-43
2023/03/06 07:26:33;;;;;;;;;;;;;;;19.83;25.99;99338.66;5093936;28;19916;-45
2023/03/06 07:28:58;;;;;;;;;;;;;;;19.67;26.38;99339.75;5093948;28;19916;-44
2023/03/06 07:31:25;;;;;;;;;;;;;;;19.94;26.07;99335.94;5093789;28;19912;-45
2023/03/06 07:33:51;;;;;;;;;;;;;;;20.39;25.91;99344.91;5093777;28;19916;-43
2023/03/06 07:36:16;;;;;;;;;;;;;;;19.83;26.06;99344.06;5094128;28;19922;-46
2023/03/06 07:38:41;;;;;;;;;;;;;;;19.38;26.30;99342.22;5094215;28;20372;-44
2023/03/06 07:41:12;;;;;;;;;;;;;;;20.03;26.50;99347.78;5093662;28;19912;-44
2023/03/06 07:43:37;;;;;;;;;;;;;;;19.88;26.34;99344.06;5093322;28;19912;-44
2023/03/06 07:46:02;;;;;;;;;;;;;;;20.58;25.68;99340.53;5093646;28;19961;-42
2023/03/06 07:48:28;;;;;;;;;;;;;;;20.52;25.74;99338.91;5093610;28;19976;-43
2023/03/06 07:50:53;;;;;;;;;;;;;;;21.01;25.15;99348.91;5093086;28;19912;-43
2023/03/06 07:53:21;;;;;;;;;;;;;;;21.33;25.04;99339.44;5093364;28;20085;-43
2023/03/06 07:55:46;;;;;;;;;;;;;;;21.51;24.55;99340.66;5093704;28;19912;-43
2023/03/06 07:58:12;;;;;;;;;;;;;;;21.15;25.48;99345.53;5093535;28;19912;-43
2023/03/06 08:00:37;;;;;;;;;;;;;;;21.35;25.39;99350.00;5092665;28;19912;-43
2023/03/06 08:03:02;;;;;;;;;;;;;;;21.21;25.48;99347.13;5092487;28;20043;-42
2023/03/06 08:05:27;;;;;;;;;;;;;;;21.30;24.94;99356.25;5093362;28;20452;-44
2023/03/06 08:07:53;;;;;;;;;;;;;;;21.81;24.75;99355.78;5093469;28;19948;-43
2023/03/06 08:10:18;;;;;;;;;;;;;;;22.18;24.40;99351.59;5092019;28;19990;-42
2023/03/06 08:12:43;;;;;;;;;;;;;;;21.61;24.54;99350.56;5093351;28;19912;-44
2023/03/06 08:15:10;;;;;;;;;;;;;;;22.10;24.33;99348.69;5093548;28;19912;-43
2023/03/06 08:17:35;;;;;;;;;;;;;;;21.05;24.86;99351.84;5093186;28;19916;-42
2023/03/06 08:20:01;;;;;;;;;;;;;;;21.58;24.71;99348.44;5093370;28;19918;-43
2023/03/06 08:22:26;;;;;;;;;;;;;;;21.55;24.71;99341.72;5092570;28;19920;-41
2023/03/06 08:24:53;;;;;;;;;;;;;;;21.70;25.00;99346.16;5092628;28;19916;-43
2023/03/06 08:27:18;;;;;;;;;;;;;;;22.08;24.34;99356.31;5093164;28;20316;-43
2023/03/06 08:29:44;;;;;;;;;;;;;;;21.98;24.55;99349.13;5092839;28;20032;-41
2023/03/06 08:32:10;;;;;;;;;;;;;;;21.65;24.71;99346.22;5092798;28;20405;-42
2023/03/06 08:34:38;;;;;;;;;;;;;;;21.50;24.05;99340.97;5092679;28;19916;-42
2023/03/06 08:37:04;;;;;;;;;;;;;;;21.83;23.62;99336.53;5092871;28;19912;-42
2023/03/06 08:39:29;;;;;;;;;;;;;;;20.69;25.11;99323.19;5092972;28;20201;-42
2023/03/06 08:41:54;;;;;;;;;;;;;;;20.61;25.53;99331.84;5092572;28;19918;-41
2023/03/06 08:44:19;;;;;;;;;;;;;;;19.37;26.20;99327.13;5092841;28;19951;-43
2023/03/06 08:46:45;;;;;;;;;;;;;;;20.29;25.32;99316.06;5093179;28;20352;-42
2023/03/06 08:49:11;;;;;;;;;;;;;;;20.08;25.78;99328.84;5092786;28;19924;-42
2023/03/06 08:51:36;;;;;;;;;;;;;;;18.90;27.07;99321.72;5092624;28;20314;-42
2023/03/06 08:54:02;;;;;;;;;;;;;;;17.89;28.90;99331.09;5092457;28;19916;-42
2023/03/06 08:56:29;;;;;;;;;;;;;;;18.60;28.57;99327.03;5092438;28;19920;-42
2023/03/06 08:58:55;;;;;;;;;;;;;;;19.44;25.97;99322.25;5092457;28;19916;-42
2023/03/06 09:01:22;;;;;;;;;;;;;;;18.42;27.70;99310.31;5092422;28;19916;-43
2023/03/06 09:03:47;;;;;;;;;;;;;;;17.15;28.62;99314.75;5092494;28;19919;-41
2023/03/06 09:06:13;;;;;;;;;;;;;;;18.28;28.48;99320.78;5092098;28;19912;-41
2023/03/06 09:08:41;;;;;;;;;;;;;;;18.97;26.50;99310.69;5092403;28;19916;-42
2023/03/06 09:11:07;;;;;;;;;;;;;;;19.34;26.30;99312.28;5092061;28;19912;-44
2023/03/06 09:13:32;;;;;;;;;;;;;;;17.75;28.73;99309.22;5092006;28;19919;-41
2023/03/06 09:15:57;;;;;;;;;;;;;;;17.72;29.01;99305.13;5092103;28;20004;-41
2023/03/06 09:18:23;;;;;;;;;;;;;;;19.04;26.72;99295.06;5091934;28;19913;-42
2023/03/06 09:20:48;;;;;;;;;;;;;;;19.34;26.61;99301.47;5092119;28;20042;-42
2023/03/06 09:23:14;;;;;;;;;;;;;;;18.56;27.88;99297.13;5091481;28;19924;-42
2023/03/06 09:25:39;;;;;;;;;;;;;;;17.65;28.73;99301.06;5092137;28;19984;-42
2023/03/06 09:28:04;;;;;;;;;;;;;;;17.03;30.45;99297.16;5091829;28;19969;-42
2023/03/06 09:30:29;;;;;;;;;;;;;;;17.19;30.87;99296.19;5091683;28;20410;-41
2023/03/06 09:32:55;;;;;;;;;;;;;;;17.74;29.93;99303.03;5091640;28;19981;-42
2023/03/06 09:35:20;;;;;;;;;;;;;;;18.76;28.29;99293.66;5091872;28;19970;-43
2023/03/06 09:37:46;;;;;;;;;;;;;;;18.25;28.44;99302.44;5091697;28;19960;-42
2023/03/06 09:40:14;;;;;;;;;;;;;;;15.97;31.83;99291.22;5091581;28;19948;-46
2023/03/06 09:42:39;;;;;;;;;;;;;;;16.97;30.49;99301.69;5091607;28;19911;-43
2023/03/06 09:45:05;;;;;;;;;;;;;;;17.33;30.24;99304.66;5091566;28;19912;-43
2023/03/06 09:47:44;;;;;;;;;;;;;;;17.91;29.02;99297.47;5091559;28;20299;-42
2023/03/06 09:50:28;;;;;;;;;;;;;;;17.58;29.95;99296.72;5091701;28;20391;-42
2023/03/06 09:53:17;;;;;;;;;;;;;;;16.78;31.50;99301.22;5091544;28;19912;-42
2023/03/06 09:55:44;;;;;;;;;;;;;;;16.17;32.30;99293.34;5091495;28;19912;-43
2023/03/06 09:58:14;;;;;;;;;;;;;;;16.88;32.21;99293.28;5091357;28;19912;-42
2023/03/06 10:00:50;;;;;;;;;;;;;;;16.08;32.10;99290.28;5091129;28;20455;-41
2023/03/06 10:03:51;;;;;;;;;;;;;;;15.62;33.39;99290.47;5091281;28;19959;-42
2023/03/06 10:06:19;;;;;;;;;;;;;;;17.22;31.74;99281.44;5068555;28;19935;-42
2023/03/06 10:08:50;;;;;;;;;;;;;;;16.71;31.62;99284.50;5086701;28;19916;-42
2023/03/06 10:11:23;;;;;;;;;;;;;;;15.85;32.60;99279.81;5090897;28;19912;-42
2023/03/06 10:13:50;;;;;;;;;;;;;;;15.77;33.10;99279.19;5091588;28;20066;-40
2023/03/06 10:16:26;;;;;;;;;;;;;;;16.23;32.01;99276.22;5091472;28;19912;-43
2023/03/06 10:18:53;;;;;;;;;;;;;;;16.36;31.72;99275.03;5091616;28;19983;-43
2023/03/06 10:21:21;;;;;;;;;;;;;;;16.73;31.35;99279.66;5091357;28;19934;-43
2023/03/06 10:23:51;;;;;;;;;;;;;;;17.29;31.39;99271.28;5091386;28;19971;-43
2023/03/06 10:26:24;;;;;;;;;;;;;;;16.68;32.75;99264.34;5091654;28;19937;-42
2023/03/06 10:29:08;;;;;;;;;;;;;;;16.98;32.10;99268.34;5091116;28;19981;-44
2023/03/06 10:31:33;;;;;;;;;;;;;;;17.88;30.87;99264.91;5091373;28;20015;-42
2023/03/06 10:34:04;;;;;;;;;;;;;;;17.73;30.10;99260.22;5090550;28;20306;-42
2023/03/06 10:36:29;;;;;;;;;;;;;;;17.33;31.22;99258.94;5090905;28;19916;-42
2023/03/06 10:38:56;;;;;;;;;;;;;;;18.36;30.91;99255.59;5090925;28;20402;-43
2023/03/06 10:41:23;;;;;;;;;;;;;;;18.61;28.94;99254.03;5090856;28;20002;-42
2023/03/06 10:43:58;;;;;;;;;;;;;;;17.96;29.79;99265.19;5090643;28;20299;-43
2023/03/06 10:46:28;;;;;;;;;;;;;;;18.44;30.16;99245.38;5090330;28;19912;-42
2023/03/06 10:48:57;;;;;;;;;;;;;;;18.94;29.00;99241.13;5089914;28;19923;-45
2023/03/06 10:51:24;;;;;;;;;;;;;;;17.80;30.40;99241.97;5090864;28;19920;-42
2023/03/06 10:53:49;;;;;;;;;;;;;;;17.92;30.25;99236.38;5090454;28;19912;-42
2023/03/06 10:56:24;;;;;;;;;;;;;;;18.79;29.38;99228.44;5090294;28;19939;-42
2023/03/06 10:59:03;;;;;;;;;;;;;;;18.35;29.75;99221.69;5090356;28;19955;-42
2023/03/06 11:01:29;;;;;;;;;;;;;;;17.35;31.61;99214.56;5090483;28;20061;-42
2023/03/06 11:04:12;;;;;;;;;;;;;;;17.58;31.38;99221.41;5090349;28;19912;-42
2023/03/06 11:06:38;;;;;;;;;;;;;;;17.39;31.58;99218.34;5090425;28;19912;-43
2023/03/06 11:09:23;;;;;;;;;;;;;;;17.07;31.43;99212.25;5090425;28;19924;-42
2023/03/06 11:11:49;;;;;;;;;;;;;;;16.94;31.35;99213.50;5089837;28;19916;-43
2023/03/06 11:14:21;;;;;;;;;;;;;;;17.46;30.22;99201.16;5090245;28;19912;-42
2023/03/06 11:16:51;;;;;;;;;;;;;;;16.86;31.91;99204.03;5089989;28;20007;-43
2023/03/06 11:19:24;;;;;;;;;;;;;;;17.37;32.50;99198.19;5090625;28;20587;-42
2023/03/06 11:22:03;;;;;;;;;;;;;;;18.33;30.36;99202.28;5090434;28;19955;-42
2023/03/06 11:24:34;;;;;;;;;;;;;;;16.97;31.21;99194.97;5090010;28;19916;-41
2023/03/06 11:27:04;;;;;;;;;;;;;;;17.38;31.38;99187.16;5089769;28;20358;-42
2023/03/06 11:29:29;;;;;;;;;;;;;;;16.79;32.67;99179.22;5089954;28;19920;-43
2023/03/06 11:32:02;;;;;;;;;;;;;;;16.70;32.38;99184.28;5090252;28;20264;-41
2023/03/06 11:34:31;;;;;;;;;;;;;;;17.07;30.36;99177.31;5090100;28;19912;-42
2023/03/06 11:37:02;;;;;;;;;;;;;;;17.69;28.95;99171.16;5089601;28;19919;-41
2023/03/06 11:39:36;;;;;;;;;;;;;;;17.17;30.88;99175.50;5090025;28;19912;-43
2023/03/06 11:42:19;;;;;;;;;;;;;;;17.64;29.07;99162.25;5090232;28;19913;-45
2023/03/06 11:45:03;;;;;;;;;;;;;;;18.27;29.14;99164.84;5090837;28;19912;-42
2023/03/06 11:47:34;;;;;;;;;;;;;;;17.27;31.26;99166.66;5093612;28;19912;-42
2023/03/06 11:50:08;;;;;;;;;;;;;;;17.05;31.73;99166.00;5094148;28;19916;-42
2023/03/06 11:52:46;;;;;;;;;;;;;;;17.42;31.14;99157.88;5094130;28;19912;-42
2023/03/06 11:55:14;;;;;;;;;;;;;;;16.92;32.14;99143.06;5092555;28;19916;-42
2023/03/06 11:57:52;;;;;;;;;;;;;;;17.07;31.97;99145.06;5093477;28;20364;-42
2023/03/06 12:00:28;;;;;;;;;;;;;;;16.91;31.08;99136.91;5093840;28;20371;-42
2023/03/06 12:02:59;;;;;;;;;;;;;;;16.42;32.84;99129.81;5093284;28;20025;-41
2023/03/06 12:05:36;;;;;;;;;;;;;;;16.85;33.09;99121.00;5073965;28;19913;-37
2023/03/06 12:08:07;;;;;;;;;;;;;;;17.35;31.84;99122.34;5080133;28;20014;-37
2023/03/06 12:10:46;;;;;;;;;;;;;;;16.74;32.18;99120.13;5093276;28;19916;-37
2023/03/06 12:13:37;;;;;;;;;;;;;;;16.47;32.00;99112.94;5092404;28;19962;-36
2023/03/06 12:16:23;;;;;;;;;;;;;;;17.68;31.20;99104.13;5093339;28;20280;-36
2023/03/06 12:18:54;;;;;;;;;;;;;;;17.63;31.92;99106.81;5091877;28;19987;-36
2023/03/06 12:21:38;;;;;;;;;;;;;;;18.07;30.89;99093.75;5093382;28;20308;-37
2023/03/06 12:24:07;;;;;;;;;;;;;;;18.43;29.71;99095.59;5091212;28;20019;-36
2023/03/06 12:26:50;;;;;;;;;;;;;;;18.48;30.10;99099.09;5093053;28;19912;-36
2023/03/06 12:29:34;;;;;;;;;;;;;;;18.49;29.31;99091.84;5093094;28;19916;-36
2023/03/06 12:32:12;;;;;;;;;;;;;;;18.50;29.88;99085.38;5092959;28;19941;-37
2023/03/06 12:34:44;;;;;;;;;;;;;;;18.46;29.13;99079.72;5093003;28;19913;-38
2023/03/06 12:37:35;;;;;;;;;;;;;;;18.80;28.82;99075.63;5093149;28;20443;-35
2023/03/06 12:40:08;;;;;;;;;;;;;;;17.72;29.02;99081.81;5090244;28;19916;-36
2023/03/06 12:42:56;;;;;;;;;;;;;;;17.57;29.47;99087.16;5092716;28;20016;-36
2023/03/06 12:45:31;;;;;;;;;;;;;;;18.14;29.30;99074.59;5092715;28;19916;-36
2023/03/06 12:47:57;;;;;;;;;;;;;;;17.71;29.42;99069.44;5092797;28;19919;-35
2023/03/06 12:50:24;;;;;;;;;;;;;;;17.35;30.27;99068.56;5092517;28;20012;-36
2023/03/06 12:52:50;;;;;;;;;;;;;;;18.35;29.21;99070.03;5092382;28;19912;-36